createdAt,value
2023-02-24T00:01:28.547Z,14.98
2023-02-24T00:03:57.012Z,16.63
2023-02-24T00:06:24.521Z,16.65
2023-02-24T00:08:51.175Z,26.70
2023-02-24T00:11:19.054Z,13.50
2023-02-24T00:13:48.645Z,12.07
2023-02-24T00:16:19.148Z,13.77
2023-02-24T00:18:45.935Z,19.27
2023-02-24T00:21:15.095Z,19.15
2023-02-24T00:23:46.477Z,17.77
2023-02-24T00:26:14.010Z,17.15
2023-02-24T00:28:40.853Z,17.40
2023-02-24T00:31:10.822Z,16.40
2023-02-24T00:33:39.430Z,19.60
2023-02-24T00:36:17.056Z,14.95
2023-02-24T00:38:47.040Z,21.85
2023-02-24T00:41:15.707Z,21.95
2023-02-24T00:43:47.021Z,17.15
2023-02-24T00:46:17.940Z,20.08
2023-02-24T00:48:48.053Z,20.95
2023-02-24T00:51:23.333Z,19.50
2023-02-24T00:53:57.007Z,18.67
2023-02-24T00:56:24.629Z,20.27
2023-02-24T00:58:51.245Z,22.38
2023-02-24T01:01:20.132Z,25.65
2023-02-24T01:03:49.268Z,15.75
2023-02-24T01:06:17.819Z,16.90
2023-02-24T01:08:47.511Z,15.93
2023-02-24T01:11:33.613Z,16.13
2023-02-24T01:14:00.438Z,14.35
2023-02-24T01:16:28.633Z,12.35
2023-02-24T01:18:55.265Z,11.60
2023-02-24T01:21:22.223Z,11.45
2023-02-24T01:23:49.983Z,10.10
2023-02-24T01:26:17.589Z,11.27
2023-02-24T01:28:46.545Z,10.43
2023-02-24T01:31:13.397Z,10.73
2023-02-24T01:33:40.096Z,15.27
2023-02-24T01:36:17.161Z,10.30
2023-02-24T01:38:44.012Z,11.00
2023-02-24T01:41:12.732Z,11.90
2023-02-24T01:44:14.767Z,9.38
2023-02-24T01:46:42.701Z,8.65
2023-02-24T01:49:16.036Z,7.13
2023-02-24T01:51:55.030Z,6.03
2023-02-24T01:54:22.914Z,14.13
2023-02-24T01:56:50.002Z,6.22
2023-02-24T01:59:16.622Z,5.53
2023-02-24T02:01:43.395Z,7.50
2023-02-24T02:04:18.711Z,5.57
2023-02-24T02:06:45.756Z,5.45
2023-02-24T02:09:14.985Z,7.85
2023-02-24T02:11:42.764Z,14.00
2023-02-24T02:14:09.898Z,5.30
2023-02-24T02:16:45.777Z,10.13
2023-02-24T02:19:50.156Z,6.07
2023-02-24T02:22:19.712Z,12.93
2023-02-24T02:24:50.872Z,8.45
2023-02-24T02:27:21.181Z,5.35
2023-02-24T02:30:13.925Z,5.90
2023-02-24T02:32:52.355Z,6.38
2023-02-24T02:35:24.738Z,5.28
2023-02-24T02:37:59.020Z,8.48
2023-02-24T02:40:37.158Z,8.13
2023-02-24T02:43:41.966Z,6.53
2023-02-24T02:46:15.871Z,5.28
2023-02-24T02:48:47.580Z,8.02
2023-02-24T02:51:17.549Z,9.75
2023-02-24T02:53:45.762Z,11.40
2023-02-24T02:56:15.697Z,5.30
2023-02-24T02:58:54.616Z,7.32
2023-02-24T03:01:28.391Z,7.70
2023-02-24T03:03:56.872Z,6.53
2023-02-24T03:06:27.953Z,8.95
2023-02-24T03:09:16.148Z,8.25
2023-02-24T03:11:44.308Z,6.93
2023-02-24T03:14:12.231Z,9.65
2023-02-24T03:16:43.060Z,7.60
2023-02-24T03:19:10.546Z,7.07
2023-02-24T03:21:42.569Z,9.23
2023-02-24T03:24:09.378Z,8.80
2023-02-24T03:26:43.820Z,8.32
2023-02-24T03:29:26.833Z,7.60
2023-02-24T03:31:59.576Z,11.30
2023-02-24T03:34:48.870Z,8.27
2023-02-24T03:37:15.593Z,8.55
2023-02-24T03:39:42.319Z,11.23
2023-02-24T03:42:12.576Z,6.65
2023-02-24T03:44:39.343Z,7.35
2023-02-24T03:47:05.995Z,6.10
2023-02-24T03:49:32.675Z,7.93
2023-02-24T03:52:29.189Z,14.60
2023-02-24T03:55:06.899Z,5.00
2023-02-24T03:57:36.442Z,9.20
2023-02-24T04:00:25.740Z,7.43
2023-02-24T04:03:11.657Z,11.45
2023-02-24T04:06:01.773Z,7.88
2023-02-24T04:08:30.195Z,10.88
2023-02-24T04:11:00.502Z,14.27
2023-02-24T04:13:46.660Z,10.75
2023-02-24T04:16:29.710Z,9.30
2023-02-24T04:18:58.427Z,10.93
2023-02-24T04:21:26.944Z,12.63
2023-02-24T04:23:53.571Z,13.57
2023-02-24T04:26:20.274Z,14.18
2023-02-24T04:28:48.719Z,12.43
2023-02-24T04:31:18.467Z,10.80
2023-02-24T04:33:50.426Z,9.75
2023-02-24T04:36:18.208Z,8.98
2023-02-24T04:38:45.999Z,10.80
2023-02-24T04:41:21.212Z,7.97
2023-02-24T04:43:50.806Z,9.23
2023-02-24T04:46:18.640Z,11.38
2023-02-24T04:48:45.539Z,7.75
2023-02-24T04:51:13.233Z,10.90
2023-02-24T04:53:39.928Z,18.08
2023-02-24T04:56:10.061Z,15.45
2023-02-24T04:58:38.282Z,12.05
2023-02-24T05:01:10.741Z,14.48
2023-02-24T05:03:37.987Z,10.15
2023-02-24T05:06:06.388Z,11.90
2023-02-24T05:08:33.422Z,18.80
2023-02-24T05:11:06.863Z,15.23
2023-02-24T05:13:33.843Z,25.50
2023-02-24T05:16:06.385Z,21.23
2023-02-24T05:18:37.233Z,14.70
2023-02-24T05:21:27.601Z,17.10
2023-02-24T05:23:54.744Z,15.60
2023-02-24T05:26:24.232Z,16.40
2023-02-24T05:28:52.371Z,32.10
2023-02-24T05:31:21.772Z,18.95
2023-02-24T05:33:49.739Z,21.13
2023-02-24T05:36:17.680Z,19.58
2023-02-24T05:38:48.360Z,18.02
2023-02-24T05:41:18.675Z,22.48
2023-02-24T05:44:05.049Z,26.50
2023-02-24T05:46:33.243Z,27.08
2023-02-24T05:49:04.516Z,24.58
2023-02-24T05:51:39.060Z,23.48
2023-02-24T05:54:08.038Z,25.75
2023-02-24T05:56:36.006Z,21.83
2023-02-24T05:59:04.497Z,24.40
2023-02-24T06:01:35.736Z,21.73
2023-02-24T06:04:06.790Z,35.13
2023-02-24T06:06:38.477Z,37.45
2023-02-24T06:09:11.018Z,34.03
2023-02-24T06:11:38.685Z,30.13
2023-02-24T06:14:07.199Z,30.73
2023-02-24T06:16:34.822Z,32.20
2023-02-24T06:19:01.489Z,30.60
2023-02-24T06:21:29.978Z,23.50
2023-02-24T06:24:00.728Z,20.55
2023-02-24T06:26:29.917Z,18.88
2023-02-24T06:28:58.084Z,19.83
2023-02-24T06:31:25.177Z,23.40
2023-02-24T06:33:53.325Z,20.35
2023-02-24T06:36:20.708Z,33.17
2023-02-24T06:38:47.415Z,33.10
2023-02-24T06:41:14.082Z,30.15
2023-02-24T06:43:43.341Z,29.38
2023-02-24T06:46:11.747Z,25.90
2023-02-24T06:48:38.626Z,28.10
2023-02-24T06:51:13.754Z,17.63
2023-02-24T06:53:43.338Z,19.77
2023-02-24T06:56:19.667Z,24.08
2023-02-24T06:58:48.061Z,18.10
2023-02-24T07:01:15.803Z,26.67
2023-02-24T07:04:02.639Z,23.02
2023-02-24T07:09:05.549Z,20.00
2023-02-24T07:11:32.604Z,20.98
2023-02-24T07:13:59.327Z,25.63
2023-02-24T07:16:28.708Z,19.83
2023-02-24T07:18:56.838Z,31.33
2023-02-24T07:21:24.588Z,30.90
2023-02-24T07:23:58.784Z,50.03
2023-02-24T07:31:24.336Z,28.83
2023-02-24T07:33:56.775Z,23.65
2023-02-24T07:36:23.549Z,21.67
2023-02-24T07:38:55.256Z,24.70
2023-02-24T07:41:23.009Z,25.42
2023-02-24T07:43:53.316Z,29.23
2023-02-24T07:46:25.033Z,25.52
2023-02-24T07:48:52.485Z,28.85
2023-02-24T07:51:21.282Z,26.52
2023-02-24T07:53:59.038Z,28.88
2023-02-24T07:56:27.110Z,29.88
2023-02-24T07:59:07.906Z,31.85
2023-02-24T08:01:39.093Z,25.92
2023-02-24T08:04:12.630Z,27.00
2023-02-24T08:06:45.472Z,25.73
2023-02-24T08:09:20.524Z,26.40
2023-02-24T08:11:52.224Z,23.70
2023-02-24T08:14:23.845Z,26.05
2023-02-24T08:16:59.515Z,27.08
2023-02-24T08:19:32.931Z,27.25
2023-02-24T08:22:28.714Z,23.65
2023-02-24T08:24:56.636Z,19.38
2023-02-24T08:27:24.544Z,21.20
2023-02-24T08:29:58.577Z,21.65
2023-02-24T08:32:37.092Z,18.60
2023-02-24T08:35:05.864Z,15.35
2023-02-24T08:37:39.836Z,16.05
2023-02-24T08:40:30.837Z,15.43
2023-02-24T08:43:17.412Z,34.83
2023-02-24T08:45:56.653Z,13.55
2023-02-24T08:48:43.437Z,15.68
2023-02-24T08:51:23.022Z,8.88
2023-02-24T08:53:53.259Z,9.73
2023-02-24T08:56:24.797Z,11.95
2023-02-24T08:58:58.786Z,10.50
2023-02-24T09:01:34.886Z,9.02
2023-02-24T09:04:07.510Z,10.10
2023-02-24T09:06:46.084Z,26.13
2023-02-24T09:09:21.434Z,10.25
2023-02-24T09:11:58.570Z,8.43
2023-02-24T09:14:28.459Z,9.60
2023-02-24T09:17:03.826Z,10.60
2023-02-24T09:19:40.641Z,13.13
2023-02-24T09:22:21.201Z,11.32
2023-02-24T09:24:51.184Z,12.60
2023-02-24T09:27:18.000Z,13.55
2023-02-24T09:29:50.546Z,11.55
2023-02-24T09:32:17.398Z,7.85
2023-02-24T09:34:44.511Z,11.90
2023-02-24T09:37:25.082Z,10.95
2023-02-24T09:42:27.153Z,11.27
2023-02-24T09:45:00.434Z,12.52
2023-02-24T09:47:45.722Z,10.23
2023-02-24T09:50:48.259Z,8.00
2023-02-24T09:53:20.032Z,11.65
2023-02-24T09:56:00.571Z,11.85
2023-02-24T10:01:22.777Z,10.52
2023-02-24T10:04:20.316Z,10.88
2023-02-24T10:07:09.119Z,10.23
2023-02-24T10:09:39.479Z,9.75
2023-02-24T10:12:17.206Z,9.30
2023-02-24T10:15:00.063Z,9.77
2023-02-24T10:17:40.262Z,11.57
2023-02-24T10:20:28.662Z,8.85
2023-02-24T10:23:03.541Z,10.65
2023-02-24T10:25:41.450Z,9.07
2023-02-24T10:28:15.070Z,11.35
2023-02-24T10:31:25.658Z,11.77
2023-02-24T10:33:56.441Z,10.15
2023-02-24T10:36:30.691Z,10.85
2023-02-24T10:38:57.455Z,10.82
2023-02-24T10:41:29.386Z,16.25
2023-02-24T10:43:56.740Z,10.05
2023-02-24T10:46:40.084Z,10.43
2023-02-24T10:49:10.089Z,10.60
2023-02-24T10:51:44.798Z,12.18
2023-02-24T10:54:54.897Z,11.98
2023-02-24T10:57:38.294Z,11.18
2023-02-24T11:00:18.494Z,9.48
2023-02-24T11:03:31.389Z,11.10
2023-02-24T11:06:04.953Z,15.35
2023-02-24T11:08:48.184Z,11.75
2023-02-24T11:11:54.080Z,12.93
2023-02-24T11:14:39.258Z,12.48
2023-02-24T11:17:16.353Z,20.77
2023-02-24T11:20:47.362Z,11.13
2023-02-24T11:23:18.191Z,8.98
2023-02-24T11:25:58.366Z,16.77
2023-02-24T11:28:49.608Z,11.57
2023-02-24T11:31:41.415Z,16.27
2023-02-24T11:34:19.073Z,12.38
2023-02-24T11:36:57.257Z,9.02
2023-02-24T11:39:59.219Z,5.57
2023-02-24T11:42:37.052Z,9.00
2023-02-24T11:45:24.844Z,7.15
2023-02-24T11:48:20.386Z,8.75
2023-02-24T11:50:58.702Z,11.48
2023-02-24T11:53:27.082Z,10.07
2023-02-24T11:58:54.704Z,9.05
2023-02-24T12:01:44.421Z,9.18
2023-02-24T12:04:34.638Z,7.32
2023-02-24T12:07:17.919Z,9.10
2023-02-24T12:09:50.418Z,9.35
2023-02-24T12:12:23.592Z,14.02
2023-02-24T12:15:21.369Z,9.65
2023-02-24T12:18:20.065Z,11.85
2023-02-24T12:21:05.862Z,9.20
2023-02-24T12:23:43.856Z,5.82
2023-02-24T12:26:26.189Z,8.88
2023-02-24T12:29:03.165Z,10.38
2023-02-24T12:31:53.534Z,12.65
2023-02-24T12:34:46.181Z,9.10
2023-02-24T12:37:40.196Z,10.98
2023-02-24T12:40:24.979Z,9.55
2023-02-24T12:43:23.078Z,9.10
2023-02-24T12:46:19.131Z,9.07
2023-02-24T12:48:59.398Z,12.90
2023-02-24T12:52:09.460Z,8.85
2023-02-24T12:55:01.094Z,8.75
2023-02-24T12:57:53.860Z,12.90
2023-02-24T13:03:27.668Z,12.48
2023-02-24T13:06:09.851Z,10.55
2023-02-24T13:08:48.514Z,9.23
2023-02-24T13:11:37.552Z,9.45
2023-02-24T13:14:31.740Z,30.15
2023-02-24T13:17:05.163Z,11.75
2023-02-24T13:19:32.067Z,8.98
2023-02-24T13:22:18.005Z,9.38
2023-02-24T13:25:07.824Z,8.02
2023-02-24T13:27:35.916Z,8.90
2023-02-24T13:30:26.283Z,10.55
2023-02-24T13:33:00.932Z,7.65
2023-02-24T13:35:27.471Z,6.55
2023-02-24T13:37:54.143Z,9.18
2023-02-24T13:40:23.975Z,10.48
2023-02-24T13:43:29.449Z,11.48
2023-02-24T13:45:58.462Z,10.95
2023-02-24T13:48:45.604Z,17.45
2023-02-24T13:51:52.530Z,12.23
2023-02-24T13:54:28.512Z,10.77
2023-02-24T13:57:22.574Z,13.93
2023-02-24T13:59:52.548Z,20.25
2023-02-24T14:02:23.160Z,12.00
2023-02-24T14:04:57.039Z,11.40
2023-02-24T14:07:32.576Z,12.07
2023-02-24T14:10:05.329Z,14.48
2023-02-24T14:12:34.317Z,13.50
2023-02-24T14:15:02.329Z,8.80
2023-02-24T14:17:34.242Z,18.70
2023-02-24T14:20:09.822Z,10.00
2023-02-24T14:22:58.817Z,13.95
2023-02-24T14:25:27.727Z,12.95
2023-02-24T14:27:55.672Z,10.95
2023-02-24T14:30:31.512Z,10.18
2023-02-24T14:32:58.385Z,10.15
2023-02-24T14:35:35.220Z,10.85
2023-02-24T14:38:02.416Z,9.57
2023-02-24T14:40:29.269Z,9.43
2023-02-24T14:42:57.233Z,12.18
2023-02-24T14:45:26.396Z,12.07
2023-02-24T14:47:54.182Z,20.08
2023-02-24T14:50:26.350Z,13.63
2023-02-24T14:53:05.031Z,13.35
2023-02-24T14:55:34.366Z,15.15
2023-02-24T14:58:06.381Z,12.80
2023-02-24T15:00:36.590Z,15.00
2023-02-24T15:03:21.114Z,14.10
2023-02-24T15:05:51.282Z,12.93
2023-02-24T15:09:00.355Z,19.40
2023-02-24T15:11:29.547Z,16.58
2023-02-24T15:14:00.968Z,17.52
2023-02-24T15:16:47.268Z,10.20
2023-02-24T15:19:29.964Z,15.35
2023-02-24T15:21:56.763Z,18.60
2023-02-24T15:24:31.592Z,17.20
2023-02-24T15:27:18.476Z,16.45
2023-02-24T15:29:45.320Z,14.65
2023-02-24T15:32:19.600Z,23.02
2023-02-24T15:34:48.011Z,27.63
2023-02-24T15:37:16.257Z,14.77
2023-02-24T15:39:43.528Z,8.95
2023-02-24T15:42:16.382Z,13.05
2023-02-24T15:44:56.561Z,28.83
2023-02-24T15:47:25.042Z,26.42
2023-02-24T15:49:52.686Z,17.80
2023-02-24T15:52:22.759Z,23.38
2023-02-24T15:54:49.487Z,26.63
2023-02-24T15:57:16.945Z,27.92
2023-02-24T15:59:44.198Z,22.48
2023-02-24T16:02:19.898Z,22.42
2023-02-24T16:04:47.417Z,32.95
2023-02-24T16:07:33.786Z,27.38
2023-02-24T16:10:00.589Z,41.45
2023-02-24T16:12:33.036Z,32.75
2023-02-24T16:15:03.376Z,79.47
2023-02-24T16:17:40.984Z,87.22
2023-02-24T16:20:15.855Z,38.53
2023-02-24T16:22:42.555Z,117.97
2023-02-24T16:25:10.461Z,100.47
2023-02-24T16:27:37.139Z,95.25
2023-02-24T16:30:04.210Z,96.05
2023-02-24T16:32:31.001Z,53.30
2023-02-24T16:34:57.870Z,198.18
2023-02-24T16:37:29.224Z,365.38
2023-02-24T16:39:55.996Z,73.82
2023-02-24T16:42:30.815Z,117.78
2023-02-24T16:47:24.004Z,44.15
2023-02-24T16:49:50.797Z,34.88
2023-02-24T16:52:20.179Z,41.35
2023-02-24T16:54:48.306Z,29.75
2023-02-24T16:57:15.367Z,32.35
2023-02-24T16:59:42.014Z,26.67
2023-02-24T17:02:17.080Z,43.53
2023-02-24T17:04:43.764Z,38.47
2023-02-24T17:07:10.743Z,45.88
2023-02-24T17:09:37.429Z,43.00
2023-02-24T17:12:04.407Z,28.95
2023-02-24T17:14:31.221Z,27.50
2023-02-24T17:16:59.525Z,30.55
2023-02-24T17:19:26.371Z,23.17
2023-02-24T17:21:53.009Z,33.25
2023-02-24T17:24:19.910Z,32.13
2023-02-24T17:26:46.586Z,25.38
2023-02-24T17:29:13.839Z,21.58
2023-02-24T17:31:41.124Z,68.50
2023-02-24T17:34:08.013Z,30.27
2023-02-24T17:36:34.676Z,23.50
2023-02-24T17:39:01.487Z,22.27
2023-02-24T17:41:28.158Z,32.20
2023-02-24T17:43:54.984Z,34.15
2023-02-24T17:46:22.290Z,18.60
2023-02-24T17:48:49.160Z,22.75
2023-02-24T17:51:16.853Z,20.48
2023-02-24T17:53:43.624Z,15.15
2023-02-24T17:56:10.727Z,23.48
2023-02-24T17:58:37.453Z,24.88
2023-02-24T18:01:05.688Z,28.60
2023-02-24T18:03:33.269Z,161.95
2023-02-24T18:06:10.663Z,150.02
2023-02-24T18:08:37.764Z,27.58
2023-02-24T18:11:04.818Z,88.53
2023-02-24T18:13:31.653Z,48.00
2023-02-24T18:15:58.588Z,47.65
2023-02-24T18:18:26.004Z,24.67
2023-02-24T18:20:52.728Z,21.95
2023-02-24T18:23:19.887Z,35.85
2023-02-24T18:25:46.597Z,24.42
2023-02-24T18:28:13.314Z,66.85
2023-02-24T18:30:40.109Z,46.13
2023-02-24T18:33:07.024Z,41.60
2023-02-24T18:35:34.350Z,31.88
2023-02-24T18:38:01.034Z,42.13
2023-02-24T18:40:28.121Z,36.00
2023-02-24T18:42:54.985Z,35.78
2023-02-24T18:45:21.908Z,34.42
2023-02-24T18:47:50.786Z,23.23
2023-02-24T18:52:44.437Z,26.55
2023-02-24T18:55:11.103Z,22.25
2023-02-24T18:57:37.859Z,26.70
2023-02-24T19:00:05.092Z,61.95
2023-02-24T19:02:31.852Z,20.92
2023-02-24T19:04:58.511Z,28.13
2023-02-24T19:07:25.241Z,31.05
2023-02-24T19:09:52.043Z,86.78
2023-02-24T19:12:20.432Z,45.08
2023-02-24T19:14:51.402Z,64.57
2023-02-24T19:17:18.735Z,24.52
2023-02-24T19:19:46.741Z,18.60
2023-02-24T19:22:13.465Z,22.20
2023-02-24T19:24:40.157Z,16.20
2023-02-24T19:27:06.882Z,18.80
2023-02-24T19:29:33.542Z,38.55
2023-02-24T19:32:00.366Z,19.55
2023-02-24T19:34:27.200Z,16.60
2023-02-24T19:36:53.862Z,20.85
2023-02-24T19:39:20.507Z,16.63
2023-02-24T19:41:49.532Z,20.48
2023-02-24T19:44:16.510Z,49.38
2023-02-24T19:46:43.373Z,35.15
2023-02-24T19:49:10.082Z,41.25
2023-02-24T19:51:36.827Z,20.88
2023-02-24T19:54:03.688Z,41.80
2023-02-24T19:56:31.241Z,50.63
2023-02-24T19:58:58.602Z,37.53
2023-02-24T20:01:26.521Z,68.88
2023-02-24T20:03:57.692Z,99.57
2023-02-24T20:06:31.358Z,73.82
2023-02-24T20:08:58.376Z,24.92
2023-02-24T20:11:25.006Z,41.97
2023-02-24T20:13:52.547Z,22.60
2023-02-24T20:16:19.803Z,22.83
2023-02-24T20:18:46.742Z,29.45
2023-02-24T20:21:13.726Z,32.83
2023-02-24T20:23:40.817Z,33.63
2023-02-24T20:26:07.854Z,31.10
2023-02-24T20:28:34.563Z,28.73
2023-02-24T20:31:06.901Z,35.85
2023-02-24T20:33:33.559Z,26.80
2023-02-24T20:36:00.218Z,21.98
2023-02-24T20:38:26.950Z,20.77
2023-02-24T20:40:59.925Z,28.17
2023-02-24T20:43:27.109Z,29.00
2023-02-24T20:45:54.258Z,27.35
2023-02-24T20:48:20.969Z,31.52
2023-02-24T20:50:47.604Z,66.30
2023-02-24T20:53:14.340Z,58.90
2023-02-24T20:55:40.926Z,48.42
2023-02-24T20:58:07.587Z,65.15
2023-02-24T21:00:34.398Z,42.45
2023-02-24T21:03:01.166Z,48.78
2023-02-24T21:05:27.908Z,57.47
2023-02-24T21:07:54.578Z,34.85
2023-02-24T21:10:25.892Z,54.95
2023-02-24T21:12:52.707Z,37.63
2023-02-24T21:15:19.890Z,53.50
2023-02-24T21:17:46.550Z,57.25
2023-02-24T21:20:13.377Z,42.50
2023-02-24T21:22:40.546Z,21.73
2023-02-24T21:25:08.131Z,29.55
2023-02-24T21:27:34.784Z,40.95
2023-02-24T21:30:01.511Z,23.83
2023-02-24T21:32:28.260Z,21.30
2023-02-24T21:34:54.987Z,33.70
2023-02-24T21:37:21.645Z,25.33
2023-02-24T21:39:49.208Z,25.98
2023-02-24T21:42:15.903Z,15.68
2023-02-24T21:44:44.568Z,24.55
2023-02-24T21:47:11.460Z,24.42
2023-02-24T21:49:38.148Z,24.67
2023-02-24T21:52:09.548Z,22.13
2023-02-24T21:54:36.202Z,20.63
2023-02-24T21:57:03.398Z,16.60
2023-02-24T21:59:30.059Z,18.90
2023-02-24T22:01:56.841Z,25.75
2023-02-24T22:04:23.516Z,16.00
2023-02-24T22:06:50.292Z,16.98
2023-02-24T22:09:20.223Z,23.88
2023-02-24T22:11:47.666Z,24.55
2023-02-24T22:14:14.857Z,24.42
2023-02-24T22:16:42.015Z,24.33
2023-02-24T22:19:08.688Z,24.50
2023-02-24T22:21:35.443Z,20.83
2023-02-24T22:24:02.522Z,19.90
2023-02-24T22:26:29.706Z,14.25
2023-02-24T22:28:56.548Z,17.58
2023-02-24T22:31:25.930Z,19.35
2023-02-24T22:33:52.721Z,27.73
2023-02-24T22:36:26.625Z,22.50
2023-02-24T22:38:54.538Z,30.05
2023-02-24T22:41:23.155Z,19.05
2023-02-24T22:43:49.775Z,29.13
2023-02-24T22:46:18.216Z,28.50
2023-02-24T22:48:45.020Z,24.42
2023-02-24T22:51:12.328Z,43.47
2023-02-24T22:53:40.310Z,24.67
2023-02-24T22:56:07.455Z,41.45
2023-02-24T22:58:34.201Z,43.72
2023-02-24T23:01:00.900Z,25.15
2023-02-24T23:03:30.719Z,28.55
2023-02-24T23:05:59.349Z,31.85
2023-02-24T23:08:27.295Z,32.15
2023-02-24T23:10:53.988Z,33.35
2023-02-24T23:13:21.029Z,33.55
2023-02-24T23:15:50.778Z,30.05
2023-02-24T23:18:17.437Z,30.00
2023-02-24T23:20:45.037Z,31.35
2023-02-24T23:23:11.845Z,22.45
2023-02-24T23:25:38.868Z,26.77
2023-02-24T23:28:06.477Z,28.52
2023-02-24T23:30:33.215Z,27.85
2023-02-24T23:33:00.900Z,25.20
2023-02-24T23:35:27.525Z,28.10
2023-02-24T23:37:54.143Z,21.77
2023-02-24T23:40:26.099Z,26.40
2023-02-24T23:42:53.308Z,18.83
2023-02-24T23:45:20.137Z,17.90
2023-02-24T23:47:46.877Z,13.10
2023-02-24T23:50:13.652Z,17.80
2023-02-24T23:52:40.306Z,21.95
2023-02-24T23:55:07.281Z,23.10
2023-02-24T23:57:34.396Z,15.30
